If you wish to contribute or participate in the discussions about articles you are invited to join SKYbrary as a registered user

 Actions

Ouagadougou International Airport

From SKYbrary Wiki

DFFD
Airport
ICAO: DFFD – IATA: OUA
Summary
Name Ouagadougou International Airport
Region Africa
Territory Burkina Faso BF.gif
Location Ouagadougou
Serving Ouagadougou
Elevation 316.078 m
1,037 ft
1,037 ft316.078 m
Coordinates 12° 21' 13.00" N, 1° 30' 43.00" W
Runways
Designator Length Width Surface ROPS
04L/22R 3028 m9,934.383 ft
45 m147.638 ft
ASP yes/yes
04R/22L 1911 m6,269.685 ft
30 m98.425 ft
LAT no/no


METAR
Observation DFFD 220500Z 22009KT 190V250 CAVOK 31/19 Q1008 NOSIG
Station Ouagadougou
Date/Time 22 April 2019 05:00:00
Wind direction 220°
Wind speed 09 kts
Lowest cloud amount clouds and visibility OK
Temperature 31°C
Dew point 19°C
Humidity 48%
QNH 1008 hPa
Weather condition n/a

Ouagadougou International Airport

ICAO: DFFD IATA: OUA

Description

Ouagadougou International Airport is an airport located in the centre of the city of Ouagadougou in Burkina Faso.

Maps

Terrain

Loading map...

Airport Layout

Loading map...


Accidents & Serious Incidents at or in vicinity of DFFD

None on SKYbrary